Flight Track Log - Related Links

Times and Time Zones

All times are in EDT time to prevent confusion due to time zone crossing. See the UAL3821 flight status page for this flight to view local times or setup timezone preferences in your user account.


Time Position Orientation Groundspeed Altitude Reporting Facility
EDT Latitude Longitude Course Direction KTS MPH feet Rate Location/Type
Tue 11:13:09 AM 40.7167 -74.1500 North 153 176 1,500  Level New York TRACON
Tue 11:14:15 AM 40.7667 -74.1333 14° North 238 274 2,900 1,700 Climbing New York TRACON
Tue 11:15:00 AM 40.9031 -74.4226 319° Northwest  Level FlightAware Approximate
Tue 11:15:09 AM 40.7833 -74.2167 285° West 272 313 4,900  Level New York TRACON
Tue 11:16:00 AM 40.9777 -74.5078 319° Northwest  Level FlightAware Approximate
Tue 11:16:09 AM 40.7833 -74.3167 270° West 277 319 6,400  Level New York TRACON
Tue 11:17:00 AM 41.0496 -74.5971 316° Northwest  Level FlightAware Approximate
Tue 11:17:51 AM 40.9022 -74.3814 338° Northwest 280 322 10,000  Level New York Center
Tue 11:18:00 AM 41.1218 -74.6833 North  Level FlightAware Approximate
Tue 11:18:52 AM 40.9744 -74.4044 346° North 280 322 11,300  Level New York Center
Tue 11:19:53 AM 41.0675 -74.4314 348° North 303 349 13,600 1,916 Climbing New York Center
Tue 11:20:51 AM 41.1456 -74.4603 344° North 303 349 15,100 1,220 Climbing New York Center
Tue 11:21:51 AM 41.1547 -74.5711 276° West 246 283 16,000 750 Climbing New York Center
Tue 11:22:51 AM 41.1444 -74.6944 264° West 298 343 16,600 744 Climbing New York Center
Tue 11:23:52 AM 41.1844 -74.8017 296° West 357 411 17,500 885 Climbing New York Center
Tue 11:24:53 AM 41.2403 -74.9319 300° West 367 422 18,400 942 Climbing New York Center
Tue 11:25:53 AM 41.2864 -75.0394 300° West 372 428 19,400 1,000 Climbing New York Center
Tue 11:26:53 AM 41.3383 -75.1617 300° West 377 434 20,400 1,000 Climbing New York Center
Tue 11:27:53 AM 41.3900 -75.2811 300° West 377 434 21,400 1,100 Climbing New York Center
Tue 11:28:53 AM 41.4433 -75.4067 300° West 382 440 22,600 1,300 Climbing New York Center
Tue 11:29:53 AM 41.4906 -75.5317 297° West 382 440 24,000 1,322 Climbing New York Center
Tue 11:30:51 AM 41.5269 -75.6644 290° West 376 433 25,200 1,220 Climbing New York Center
Tue 11:31:51 AM 41.5631 -75.7919 291° West 376 433 26,400 1,091 Climbing New York Center
Tue 11:32:52 AM 41.6014 -75.9167 292° West 376 433 27,400 992 Climbing New York Center
Tue 11:33:52 AM 41.6353 -76.0472 289° West 376 433 28,400 984 Climbing New York Center
Tue 11:34:54 AM 41.6714 -76.1722 291° West 376 433 29,400 908 Climbing New York Center
Tue 11:35:51 AM 41.7092 -76.3031 291° West 376 433 30,200 864 Climbing New York Center
Tue 11:36:52 AM 41.7361 -76.4386 285° West 376 433 31,100 1,041 Climbing New York Center
Tue 11:37:52 AM 41.7417 -76.5781 273° West 370 426 32,300 1,240 Climbing New York Center
Tue 11:38:53 AM 41.7456 -76.7119 272° West 370 426 33,600 1,339 Climbing New York Center
Tue 11:39:53 AM 41.7611 -76.8581 278° West 365 420 35,000 1,150 Climbing New York Center
Tue 11:40:53 AM 41.8156 -76.9714 303° West 357 411 35,900 426 Climbing New York Center
Tue 11:42:14 AM 41.8958 -77.1378 303° West 373 429 36,000 43 Climbing Cleveland Center
Tue 11:43:14 AM 41.9536 -77.2631 302° West 384 442 36,000  Level Cleveland Center
Tue 11:44:14 AM 42.0078 -77.4058 297° West 405 466 36,000  Level Cleveland Center
Tue 11:45:14 AM 42.0514 -77.5572 291° West 421 484 36,000  Level Cleveland Center
Tue 11:46:14 AM 42.0908 -77.7039 290° West 426 490 36,000  Level Cleveland Center
Tue 11:47:14 AM 42.1275 -77.8450 289° West 416 479 36,000  Level Cleveland Center
Tue 11:48:14 AM 42.1642 -77.9892 289° West 416 479 36,000  Level Cleveland Center
Tue 11:49:14 AM 42.2006 -78.1278 290° West 410 472 36,000  Level Cleveland Center
Tue 11:50:14 AM 42.2369 -78.2667 290° West 400 460 36,000  Level Cleveland Center
Tue 11:51:14 AM 42.2728 -78.4000 290° West 394 453 36,000  Level Cleveland Center
Tue 11:52:14 AM 42.3044 -78.5336 288° West 388 447 36,000  Level Cleveland Center
Tue 11:53:14 AM 42.3381 -78.6619 290° West 376 433 36,000  Level Cleveland Center
Tue 11:54:14 AM 42.3733 -78.7928 290° West 371 427 36,000  Level Cleveland Center
Tue 11:55:14 AM 42.4003 -78.9103 287° West 371 427 36,000  Level Cleveland Center
Tue 11:56:14 AM 42.4311 -79.0444 287° West 366 421 36,000  Level Cleveland Center
Tue 11:57:14 AM 42.4728 -79.1925 291° West 377 434 36,000  Level Cleveland Center
Tue 11:58:14 AM 42.4950 -79.3331 282° West 382 440 36,000  Level Cleveland Center
Tue 11:59:14 AM 42.5008 -79.4736 273° West 382 440 36,000  Level Cleveland Center
Tue 12:00:14 PM 42.5103 -79.6142 275° West 376 433 36,000  Level Cleveland Center
Tue 12:01:14 PM 42.5156 -79.7494 273° West 371 427 36,000  Level Cleveland Center
Tue 12:02:14 PM 42.5247 -79.8903 275° West 371 427 36,000  Level Cleveland Center
Tue 12:03:14 PM 42.5256 -80.0142 271° West 366 421 36,000  Level Cleveland Center
Tue 12:04:14 PM 42.5325 -80.1661 274° West 366 421 36,000  Level Cleveland Center
Tue 12:05:14 PM 42.5392 -80.3042 274° West 366 421 36,000  Level Cleveland Center
Tue 12:06:14 PM 42.5436 -80.4394 273° West 366 421 36,000 -50 Level Cleveland Center
Tue 12:07:14 PM 42.5497 -80.5803 273° West 373 429 35,900  Descending Cleveland Center
Tue 12:08:14 PM 42.5539 -80.7214 272° West 373 429 36,000 50 Climbing Cleveland Center
Tue 12:09:14 PM 42.5578 -80.8567 272° West 364 419 36,000  Level Cleveland Center
Tue 12:10:14 PM 42.5658 -80.9919 275° West 364 419 36,000  Level Cleveland Center
Tue 12:11:14 PM 42.5694 -81.1244 272° West 364 419 36,000  Level Cleveland Center
Tue 12:12:14 PM 42.5728 -81.2628 272° West 364 419 36,000  Level Cleveland Center
Tue 12:13:14 PM 42.5783 -81.3953 273° West 356 410 36,000 -550 Level Cleveland Center
Tue 12:14:14 PM 42.5939 -81.5194 280° West 351 404 34,900 -1,400 Descending Cleveland Center
Tue 12:15:14 PM 42.6139 -81.6269 284° West 331 381 33,200 -1,450 Descending Cleveland Center
Tue 12:16:14 PM 42.6356 -81.7628 282° West 349 402 32,000 -600 Descending Cleveland Center
Tue 12:17:14 PM 42.6592 -81.8819 285° West 354 407 32,000  Level Cleveland Center
Tue 12:18:14 PM 42.6806 -82.0122 283° West 354 407 32,000  Level Cleveland Center
Tue 12:19:14 PM 42.7019 -82.1397 283° West 354 407 32,000  Level Cleveland Center
Tue 12:20:14 PM 42.7250 -82.2706 284° West 354 407 32,000  Level Cleveland Center
Tue 12:21:14 PM 42.7439 -82.3953 282° West 354 407 32,000  Level Cleveland Center
Tue 12:22:14 PM 42.7669 -82.5233 284° West 354 407 32,000  Level Cleveland Center
Tue 12:23:14 PM 42.7875 -82.6511 282° West 354 407 32,000  Level Cleveland Center
Tue 12:24:14 PM 42.8081 -82.7794 282° West 354 407 32,000  Level Cleveland Center
Tue 12:25:14 PM 42.8308 -82.9019 284° West 354 407 32,000  Level Cleveland Center
Tue 12:26:14 PM 42.8511 -83.0328 282° West 354 407 32,000  Level Cleveland Center
Tue 12:27:14 PM 42.8711 -83.1611 282° West 354 407 32,000  Level Cleveland Center
Tue 12:28:14 PM 42.8911 -83.2867 282° West 354 407 32,000  Level Cleveland Center
Tue 12:29:14 PM 42.9131 -83.4153 283° West 354 407 32,000  Level Cleveland Center
Tue 12:30:14 PM 42.9328 -83.5467 282° West 354 407 32,000  Level Cleveland Center
Tue 12:31:14 PM 42.9544 -83.6725 283° West 354 407 32,000  Level Cleveland Center
Tue 12:32:14 PM 42.9697 -83.7981 279° West 354 407 32,000  Level Cleveland Center
Tue 12:33:14 PM 42.9808 -83.9264 277° West 349 402 32,000  Level Cleveland Center
Tue 12:34:14 PM 42.9956 -84.0578 279° West 349 402 32,000  Level Cleveland Center
Tue 12:35:14 PM 43.0064 -84.1861 277° West 349 402 32,000  Level Cleveland Center
Tue 12:36:14 PM 43.0189 -84.3175 277° West 349 402 32,000  Level Cleveland Center
Tue 12:37:14 PM 43.0333 -84.4406 279° West 349 402 32,000  Level Cleveland Center
Tue 12:38:10 PM 43.0450 -84.5708 277° West 341 392 32,000  Level Chicago Center
Tue 12:39:12 PM 43.0569 -84.7003 277° West 342 394 32,000  Level Chicago Center
Tue 12:40:14 PM 43.0683 -84.8322 277° West 349 402 32,000  Level Chicago Center
Tue 12:41:16 PM 43.0806 -84.9639 277° West 350 403 32,000  Level Chicago Center
Tue 12:42:18 PM 43.0914 -85.0950 276° West 349 402 32,000  Level Chicago Center
Tue 12:43:20 PM 43.1025 -85.2206 277° West 338 389 32,000  Level Chicago Center
Tue 12:44:22 PM 43.1147 -85.3644 277° West 321 369 32,000  Level Chicago Center
Tue 12:45:23 PM 43.1244 -85.4839 276° West 318 366 32,000  Level Chicago Center
Tue 12:46:25 PM 43.1342 -85.6047 276° West 320 368 32,000  Level Chicago Center
Tue 12:47:27 PM 43.1444 -85.7256 277° West 323 372 32,000  Level Chicago Center
Tue 12:48:29 PM 43.1542 -85.8492 276° West 329 379 32,000 -919 Level Chicago Center
Tue 12:49:31 PM 43.1661 -85.9953 276° West 330 380 30,100 -1,839 Descending Chicago Center
Tue 12:50:33 PM 43.1689 -86.1239 272° West 345 397 28,200 -1,935 Descending Chicago Center
Tue 12:51:35 PM 43.1667 -86.2589 269° West 358 412 26,100 -1,984 Descending Chicago Center
Tue 12:52:37 PM 43.1639 -86.3997 268° West 370 426 24,100 -2,146 Descending Chicago Center
Tue 12:53:38 PM 43.1619 -86.5667 269° West 366 421 21,700 -2,195 Descending Chicago Center
Tue 12:54:40 PM 43.1586 -86.6981 268° West 351 404 19,600 -2,081 Descending Chicago Center
Tue 12:55:42 PM 43.1569 -86.8328 269° West 354 407 17,400 -2,274 Descending Chicago Center
Tue 12:56:44 PM 43.1531 -86.9672 268° West 355 409 14,900 -1,694 Descending Chicago Center
Tue 12:57:46 PM 43.1419 -87.0908 263° West 331 381 13,900 -1,452 Descending Chicago Center
Tue 12:58:48 PM 43.1092 -87.1994 248° West 312 359 11,900 -1,659 Descending Chicago Center
Tue 12:59:49 PM 43.0864 -87.3086 254° West 299 344 10,500 -1,463 Descending Chicago Center
Tue 01:00:51 PM 43.0575 -87.4150 250° West 264 304 8,900 -1,887 Descending Chicago Center
Tue 01:01:53 PM 43.0400 -87.4975 254° West 230 265 6,600 -2,274 Descending Chicago Center
Tue 01:02:55 PM 43.0200 -87.5775 251° West 224 258 4,200 -1,984 Descending Chicago Center
Tue 01:03:57 PM 42.9983 -87.6714 253° West 222 255 2,500 -823 Descending Chicago Center
Tue 01:04:59 PM 42.9861 -87.7261 253° West 171 197 2,500  Level Chicago Center

Login

Don't have an account? Register now (free) for customized features, flight alerts, and more!